Decoded Metar for LYPG (PODGORICA in SERBIA) (IATA:TGD) | Meteo·Mobile Aviation Weather
aviador You're here:

LYPG Decoded Metar

PODGORICA in SERBIA
Report Time2019-09-21 09:30:00
UTC Time2019-09-21 10:00:47
Flight Rules vfr VFR
WindVRB at 02 kt
Visibility9999 m
Phenomena:N/A
Clouds:N/A
Expected CloudBase > 8,800 ft AGL from Temp-Dew spread
CeilingNone
Temp22°C (ISA +7)
Dew Point00°C (23% RH)
AAT19.3°C
QNH1024 hPa
Density Alt709 ft
Elevation141 ft
Report Wrong Elevation
Raw Report
LYPG 210930Z VRB02KT CAVOK 22/M00 Q1024 NOSIG=

Extra information for LYPG:More info

Metar Taf Metar & Taf Last 4 Metars F.Rules Stats Wind Profile Meteogram Temp Stats Airport Information Weather charts Add Link Nearby VenuesMetar ALERT Operation Metar Decoded Social comments